sensor_id;sensor_type;location;lat;lon;timestamp;P1;durP1;ratioP1;P2;durP2;ratioP2
43606;SDS011;29197;44.788;10.366;2023-09-30T00:01:47;3.70;;;3.00;;
43606;SDS011;29197;44.788;10.366;2023-09-30T00:04:39;3.63;;;3.22;;
43606;SDS011;29197;44.788;10.366;2023-09-30T00:07:28;4.40;;;3.40;;
43606;SDS011;29197;44.788;10.366;2023-09-30T00:10:17;3.80;;;3.03;;
43606;SDS011;29197;44.788;10.366;2023-09-30T00:13:06;5.93;;;4.57;;
43606;SDS011;29197;44.788;10.366;2023-09-30T00:15:54;4.00;;;3.50;;
43606;SDS011;29197;44.788;10.366;2023-09-30T00:18:43;4.50;;;3.57;;
43606;SDS011;29197;44.788;10.366;2023-09-30T00:21:34;3.90;;;3.50;;
43606;SDS011;29197;44.788;10.366;2023-09-30T00:24:23;3.78;;;3.45;;
43606;SDS011;29197;44.788;10.366;2023-09-30T00:27:12;5.32;;;3.35;;
43606;SDS011;29197;44.788;10.366;2023-09-30T00:30:01;4.13;;;3.20;;
43606;SDS011;29197;44.788;10.366;2023-09-30T00:32:51;5.03;;;3.77;;
43606;SDS011;29197;44.788;10.366;2023-09-30T00:35:40;5.13;;;3.78;;
43606;SDS011;29197;44.788;10.366;2023-09-30T00:38:30;4.47;;;3.80;;
43606;SDS011;29197;44.788;10.366;2023-09-30T00:41:19;4.13;;;3.72;;
43606;SDS011;29197;44.788;10.366;2023-09-30T00:44:08;4.73;;;3.80;;
43606;SDS011;29197;44.788;10.366;2023-09-30T00:46:57;4.47;;;3.47;;
43606;SDS011;29197;44.788;10.366;2023-09-30T00:49:46;4.15;;;3.65;;
43606;SDS011;29197;44.788;10.366;2023-09-30T00:52:35;4.15;;;3.75;;
43606;SDS011;29197;44.788;10.366;2023-09-30T00:55:26;5.60;;;3.50;;
43606;SDS011;29197;44.788;10.366;2023-09-30T00:58:15;8.17;;;5.23;;
43606;SDS011;29197;44.788;10.366;2023-09-30T01:01:04;4.30;;;3.83;;
43606;SDS011;29197;44.788;10.366;2023-09-30T01:03:53;4.00;;;3.45;;
43606;SDS011;29197;44.788;10.366;2023-09-30T01:06:42;3.70;;;2.80;;
43606;SDS011;29197;44.788;10.366;2023-09-30T01:09:31;4.70;;;3.92;;
43606;SDS011;29197;44.788;10.366;2023-09-30T01:12:22;5.60;;;3.55;;
43606;SDS011;29197;44.788;10.366;2023-09-30T01:15:10;4.15;;;3.50;;
43606;SDS011;29197;44.788;10.366;2023-09-30T01:17:59;3.50;;;2.80;;
43606;SDS011;29197;44.788;10.366;2023-09-30T01:20:48;4.82;;;3.70;;
43606;SDS011;29197;44.788;10.366;2023-09-30T01:23:40;7.32;;;5.50;;
43606;SDS011;29197;44.788;10.366;2023-09-30T01:26:30;5.25;;;3.60;;
43606;SDS011;29197;44.788;10.366;2023-09-30T01:29:19;3.40;;;3.10;;
43606;SDS011;29197;44.788;10.366;2023-09-30T01:32:09;5.00;;;3.70;;
43606;SDS011;29197;44.788;10.366;2023-09-30T01:34:58;4.07;;;3.40;;
43606;SDS011;29197;44.788;10.366;2023-09-30T01:37:47;4.28;;;3.40;;
43606;SDS011;29197;44.788;10.366;2023-09-30T01:40:37;3.88;;;3.47;;
43606;SDS011;29197;44.788;10.366;2023-09-30T01:43:26;4.70;;;3.53;;
43606;SDS011;29197;44.788;10.366;2023-09-30T01:46:15;4.38;;;3.40;;
43606;SDS011;29197;44.788;10.366;2023-09-30T01:49:04;4.32;;;3.50;;
43606;SDS011;29197;44.788;10.366;2023-09-30T01:51:53;5.00;;;3.58;;
43606;SDS011;29197;44.788;10.366;2023-09-30T01:54:41;4.13;;;3.37;;
43606;SDS011;29197;44.788;10.366;2023-09-30T01:57:32;7.35;;;5.57;;
43606;SDS011;29197;44.788;10.366;2023-09-30T02:00:21;6.78;;;4.80;;
43606;SDS011;29197;44.788;10.366;2023-09-30T02:03:09;5.05;;;4.15;;
43606;SDS011;29197;44.788;10.366;2023-09-30T02:05:58;5.75;;;4.38;;
43606;SDS011;29197;44.788;10.366;2023-09-30T02:08:47;3.92;;;3.55;;
43606;SDS011;29197;44.788;10.366;2023-09-30T02:11:36;4.43;;;3.42;;
43606;SDS011;29197;44.788;10.366;2023-09-30T02:14:29;4.13;;;3.35;;
43606;SDS011;29197;44.788;10.366;2023-09-30T02:17:18;5.03;;;3.85;;
43606;SDS011;29197;44.788;10.366;2023-09-30T02:20:07;4.88;;;3.67;;
43606;SDS011;29197;44.788;10.366;2023-09-30T02:22:59;6.60;;;4.07;;
43606;SDS011;29197;44.788;10.366;2023-09-30T02:25:49;6.95;;;4.78;;
43606;SDS011;29197;44.788;10.366;2023-09-30T02:28:38;7.03;;;4.68;;
43606;SDS011;29197;44.788;10.366;2023-09-30T02:31:28;7.20;;;5.27;;
43606;SDS011;29197;44.788;10.366;2023-09-30T02:34:17;7.27;;;5.43;;
43606;SDS011;29197;44.788;10.366;2023-09-30T02:37:06;7.88;;;6.05;;
43606;SDS011;29197;44.788;10.366;2023-09-30T02:39:54;7.80;;;5.80;;
43606;SDS011;29197;44.788;10.366;2023-09-30T02:42:44;4.73;;;4.20;;
43606;SDS011;29197;44.788;10.366;2023-09-30T02:45:33;5.22;;;4.30;;
43606;SDS011;29197;44.788;10.366;2023-09-30T02:48:23;5.30;;;4.80;;
43606;SDS011;29197;44.788;10.366;2023-09-30T02:51:12;5.85;;;4.80;;
43606;SDS011;29197;44.788;10.366;2023-09-30T02:54:02;4.87;;;4.37;;
43606;SDS011;29197;44.788;10.366;2023-09-30T02:56:51;9.30;;;6.38;;
43606;SDS011;29197;44.788;10.366;2023-09-30T02:59:41;8.50;;;6.05;;
43606;SDS011;29197;44.788;10.366;2023-09-30T03:02:31;6.70;;;4.75;;
43606;SDS011;29197;44.788;10.366;2023-09-30T03:05:21;5.45;;;4.60;;
43606;SDS011;29197;44.788;10.366;2023-09-30T03:08:11;5.07;;;4.50;;
43606;SDS011;29197;44.788;10.366;2023-09-30T03:10:59;9.45;;;6.88;;
43606;SDS011;29197;44.788;10.366;2023-09-30T03:13:48;7.03;;;5.88;;
43606;SDS011;29197;44.788;10.366;2023-09-30T03:16:38;9.75;;;7.15;;
43606;SDS011;29197;44.788;10.366;2023-09-30T03:19:28;10.43;;;6.80;;
43606;SDS011;29197;44.788;10.366;2023-09-30T03:22:18;6.67;;;5.37;;
43606;SDS011;29197;44.788;10.366;2023-09-30T03:25:07;5.38;;;4.45;;
43606;SDS011;29197;44.788;10.366;2023-09-30T03:27:56;8.02;;;5.50;;
43606;SDS011;29197;44.788;10.366;2023-09-30T03:30:45;5.65;;;4.80;;
43606;SDS011;29197;44.788;10.366;2023-09-30T03:33:34;4.95;;;4.38;;
43606;SDS011;29197;44.788;10.366;2023-09-30T03:36:23;5.45;;;4.60;;
43606;SDS011;29197;44.788;10.366;2023-09-30T03:39:14;6.38;;;4.80;;
43606;SDS011;29197;44.788;10.366;2023-09-30T03:42:04;4.80;;;4.30;;
43606;SDS011;29197;44.788;10.366;2023-09-30T03:44:53;5.65;;;4.55;;
43606;SDS011;29197;44.788;10.366;2023-09-30T03:47:42;5.28;;;4.60;;
43606;SDS011;29197;44.788;10.366;2023-09-30T03:50:32;5.80;;;4.72;;
43606;SDS011;29197;44.788;10.366;2023-09-30T03:53:21;4.75;;;4.13;;
43606;SDS011;29197;44.788;10.366;2023-09-30T03:56:14;5.90;;;4.50;;
43606;SDS011;29197;44.788;10.366;2023-09-30T03:59:04;5.20;;;4.60;;
43606;SDS011;29197;44.788;10.366;2023-09-30T04:01:55;4.75;;;4.30;;
43606;SDS011;29197;44.788;10.366;2023-09-30T04:04:45;4.57;;;3.97;;
43606;SDS011;29197;44.788;10.366;2023-09-30T04:07:34;6.07;;;4.57;;
43606;SDS011;29197;44.788;10.366;2023-09-30T04:10:23;5.47;;;4.13;;
43606;SDS011;29197;44.788;10.366;2023-09-30T04:13:13;5.50;;;5.00;;
43606;SDS011;29197;44.788;10.366;2023-09-30T04:16:03;4.70;;;4.03;;
43606;SDS011;29197;44.788;10.366;2023-09-30T04:18:52;5.35;;;4.85;;
43606;SDS011;29197;44.788;10.366;2023-09-30T04:21:41;4.85;;;4.35;;
43606;SDS011;29197;44.788;10.366;2023-09-30T04:24:30;7.82;;;4.40;;
43606;SDS011;29197;44.788;10.366;2023-09-30T04:27:18;5.43;;;4.63;;
43606;SDS011;29197;44.788;10.366;2023-09-30T04:30:10;5.03;;;4.30;;
43606;SDS011;29197;44.788;10.366;2023-09-30T04:32:59;5.70;;;4.60;;
43606;SDS011;29197;44.788;10.366;2023-09-30T04:35:47;5.65;;;4.50;;
43606;SDS011;29197;44.788;10.366;2023-09-30T04:38:36;5.22;;;4.72;;
43606;SDS011;29197;44.788;10.366;2023-09-30T04:41:25;5.50;;;4.68;;
43606;SDS011;29197;44.788;10.366;2023-09-30T04:44:14;5.30;;;4.80;;
43606;SDS011;29197;44.788;10.366;2023-09-30T04:47:05;6.20;;;4.97;;
43606;SDS011;29197;44.788;10.366;2023-09-30T04:49:53;7.18;;;5.35;;
43606;SDS011;29197;44.788;10.366;2023-09-30T04:52:45;5.35;;;4.65;;
43606;SDS011;29197;44.788;10.366;2023-09-30T04:55:33;7.67;;;5.63;;
43606;SDS011;29197;44.788;10.366;2023-09-30T04:58:24;7.07;;;6.30;;
43606;SDS011;29197;44.788;10.366;2023-09-30T05:01:13;6.78;;;5.65;;
43606;SDS011;29197;44.788;10.366;2023-09-30T05:04:03;7.65;;;5.38;;
43606;SDS011;29197;44.788;10.366;2023-09-30T05:06:52;7.60;;;6.13;;
43606;SDS011;29197;44.788;10.366;2023-09-30T05:09:41;9.17;;;6.70;;
43606;SDS011;29197;44.788;10.366;2023-09-30T05:12:31;8.23;;;6.50;;
43606;SDS011;29197;44.788;10.366;2023-09-30T05:15:20;10.40;;;7.78;;
43606;SDS011;29197;44.788;10.366;2023-09-30T05:18:09;7.97;;;6.53;;
43606;SDS011;29197;44.788;10.366;2023-09-30T05:20:59;7.03;;;5.95;;
43606;SDS011;29197;44.788;10.366;2023-09-30T05:23:48;5.25;;;4.75;;
43606;SDS011;29197;44.788;10.366;2023-09-30T05:26:37;9.40;;;6.47;;
43606;SDS011;29197;44.788;10.366;2023-09-30T05:29:26;9.48;;;6.72;;
43606;SDS011;29197;44.788;10.366;2023-09-30T05:32:15;7.50;;;6.47;;
43606;SDS011;29197;44.788;10.366;2023-09-30T05:35:05;9.25;;;6.25;;
43606;SDS011;29197;44.788;10.366;2023-09-30T05:38:01;7.70;;;6.00;;
43606;SDS011;29197;44.788;10.366;2023-09-30T05:40:52;8.25;;;6.15;;
43606;SDS011;29197;44.788;10.366;2023-09-30T05:43:41;5.72;;;4.72;;
43606;SDS011;29197;44.788;10.366;2023-09-30T05:46:31;6.38;;;4.60;;
43606;SDS011;29197;44.788;10.366;2023-09-30T05:49:19;6.03;;;4.70;;
43606;SDS011;29197;44.788;10.366;2023-09-30T05:52:08;6.80;;;5.77;;
43606;SDS011;29197;44.788;10.366;2023-09-30T05:54:58;5.43;;;4.78;;
43606;SDS011;29197;44.788;10.366;2023-09-30T05:57:47;5.97;;;4.32;;
43606;SDS011;29197;44.788;10.366;2023-09-30T06:00:36;6.05;;;4.32;;
43606;SDS011;29197;44.788;10.366;2023-09-30T06:03:27;4.68;;;4.15;;
43606;SDS011;29197;44.788;10.366;2023-09-30T06:06:16;5.32;;;4.32;;
43606;SDS011;29197;44.788;10.366;2023-09-30T06:09:05;6.60;;;4.30;;
43606;SDS011;29197;44.788;10.366;2023-09-30T06:11:56;5.03;;;4.13;;
43606;SDS011;29197;44.788;10.366;2023-09-30T06:14:44;5.30;;;4.22;;
43606;SDS011;29197;44.788;10.366;2023-09-30T06:17:33;5.95;;;4.18;;
43606;SDS011;29197;44.788;10.366;2023-09-30T06:20:21;4.33;;;3.93;;
43606;SDS011;29197;44.788;10.366;2023-09-30T06:23:14;5.07;;;4.03;;
43606;SDS011;29197;44.788;10.366;2023-09-30T06:26:03;4.53;;;3.63;;
43606;SDS011;29197;44.788;10.366;2023-09-30T06:28:52;8.98;;;5.80;;
43606;SDS011;29197;44.788;10.366;2023-09-30T06:31:43;9.77;;;5.67;;
43606;SDS011;29197;44.788;10.366;2023-09-30T06:34:31;7.80;;;5.43;;
43606;SDS011;29197;44.788;10.366;2023-09-30T06:37:21;6.47;;;4.85;;
43606;SDS011;29197;44.788;10.366;2023-09-30T06:40:10;7.37;;;5.53;;
43606;SDS011;29197;44.788;10.366;2023-09-30T06:42:59;6.35;;;4.97;;
43606;SDS011;29197;44.788;10.366;2023-09-30T06:45:49;5.63;;;4.68;;
43606;SDS011;29197;44.788;10.366;2023-09-30T06:48:38;7.15;;;5.40;;
43606;SDS011;29197;44.788;10.366;2023-09-30T06:51:28;9.40;;;5.93;;
43606;SDS011;29197;44.788;10.366;2023-09-30T06:54:17;9.07;;;5.77;;
43606;SDS011;29197;44.788;10.366;2023-09-30T06:57:06;5.97;;;4.68;;
43606;SDS011;29197;44.788;10.366;2023-09-30T06:59:56;4.53;;;4.03;;
43606;SDS011;29197;44.788;10.366;2023-09-30T07:02:46;5.38;;;4.70;;
43606;SDS011;29197;44.788;10.366;2023-09-30T07:05:35;7.60;;;4.90;;
43606;SDS011;29197;44.788;10.366;2023-09-30T07:08:24;10.63;;;6.00;;
43606;SDS011;29197;44.788;10.366;2023-09-30T07:11:13;7.50;;;5.30;;
43606;SDS011;29197;44.788;10.366;2023-09-30T07:14:01;6.07;;;4.30;;
43606;SDS011;29197;44.788;10.366;2023-09-30T07:16:50;7.20;;;5.53;;
43606;SDS011;29197;44.788;10.366;2023-09-30T07:19:40;6.13;;;5.03;;
43606;SDS011;29197;44.788;10.366;2023-09-30T07:22:29;7.22;;;5.13;;
43606;SDS011;29197;44.788;10.366;2023-09-30T07:25:20;8.48;;;5.57;;
43606;SDS011;29197;44.788;10.366;2023-09-30T07:28:09;7.45;;;5.57;;
43606;SDS011;29197;44.788;10.366;2023-09-30T07:30:59;6.82;;;4.97;;
43606;SDS011;29197;44.788;10.366;2023-09-30T07:33:47;6.22;;;4.50;;
43606;SDS011;29197;44.788;10.366;2023-09-30T07:36:38;5.35;;;4.07;;
43606;SDS011;29197;44.788;10.366;2023-09-30T07:39:26;7.78;;;5.55;;
43606;SDS011;29197;44.788;10.366;2023-09-30T07:42:15;5.15;;;4.07;;
43606;SDS011;29197;44.788;10.366;2023-09-30T07:45:04;4.73;;;3.63;;
43606;SDS011;29197;44.788;10.366;2023-09-30T07:47:54;4.65;;;3.70;;
43606;SDS011;29197;44.788;10.366;2023-09-30T07:50:45;4.00;;;3.42;;
43606;SDS011;29197;44.788;10.366;2023-09-30T07:53:35;5.67;;;4.07;;
43606;SDS011;29197;44.788;10.366;2023-09-30T07:56:25;4.90;;;3.85;;
43606;SDS011;29197;44.788;10.366;2023-09-30T07:59:14;5.70;;;4.33;;
43606;SDS011;29197;44.788;10.366;2023-09-30T08:02:03;9.10;;;5.40;;
43606;SDS011;29197;44.788;10.366;2023-09-30T08:04:53;5.78;;;4.32;;
43606;SDS011;29197;44.788;10.366;2023-09-30T08:07:42;7.87;;;4.67;;
43606;SDS011;29197;44.788;10.366;2023-09-30T08:10:34;5.03;;;4.13;;
43606;SDS011;29197;44.788;10.366;2023-09-30T08:13:23;4.00;;;3.37;;
43606;SDS011;29197;44.788;10.366;2023-09-30T08:16:12;5.45;;;3.38;;
43606;SDS011;29197;44.788;10.366;2023-09-30T08:19:02;6.87;;;4.37;;
43606;SDS011;29197;44.788;10.366;2023-09-30T08:21:51;7.60;;;5.43;;
43606;SDS011;29197;44.788;10.366;2023-09-30T08:24:40;7.20;;;4.65;;
43606;SDS011;29197;44.788;10.366;2023-09-30T08:27:30;7.43;;;5.50;;
43606;SDS011;29197;44.788;10.366;2023-09-30T08:30:19;3.80;;;3.03;;
43606;SDS011;29197;44.788;10.366;2023-09-30T08:33:08;9.68;;;5.53;;
43606;SDS011;29197;44.788;10.366;2023-09-30T08:36:01;5.93;;;4.35;;
43606;SDS011;29197;44.788;10.366;2023-09-30T08:38:53;6.88;;;4.75;;
43606;SDS011;29197;44.788;10.366;2023-09-30T08:41:42;6.30;;;4.63;;
43606;SDS011;29197;44.788;10.366;2023-09-30T08:44:33;4.53;;;3.63;;
43606;SDS011;29197;44.788;10.366;2023-09-30T08:47:22;5.00;;;3.92;;
43606;SDS011;29197;44.788;10.366;2023-09-30T08:50:17;6.47;;;4.20;;
43606;SDS011;29197;44.788;10.366;2023-09-30T08:53:06;5.78;;;4.55;;
43606;SDS011;29197;44.788;10.366;2023-09-30T08:55:56;6.23;;;5.13;;
43606;SDS011;29197;44.788;10.366;2023-09-30T08:58:45;6.40;;;4.93;;
43606;SDS011;29197;44.788;10.366;2023-09-30T09:01:36;12.10;;;8.47;;
43606;SDS011;29197;44.788;10.366;2023-09-30T09:04:25;13.90;;;9.50;;
43606;SDS011;29197;44.788;10.366;2023-09-30T09:07:14;9.38;;;6.60;;
43606;SDS011;29197;44.788;10.366;2023-09-30T09:10:04;8.63;;;6.07;;
43606;SDS011;29197;44.788;10.366;2023-09-30T09:12:55;6.18;;;5.35;;
43606;SDS011;29197;44.788;10.366;2023-09-30T09:15:44;7.07;;;5.32;;
43606;SDS011;29197;44.788;10.366;2023-09-30T09:18:35;7.70;;;6.43;;
43606;SDS011;29197;44.788;10.366;2023-09-30T09:21:24;9.95;;;7.57;;
43606;SDS011;29197;44.788;10.366;2023-09-30T09:24:15;10.07;;;7.82;;
43606;SDS011;29197;44.788;10.366;2023-09-30T09:27:14;17.75;;;10.02;;
43606;SDS011;29197;44.788;10.366;2023-09-30T09:30:13;9.33;;;6.30;;
43606;SDS011;29197;44.788;10.366;2023-09-30T09:33:03;11.03;;;8.37;;
43606;SDS011;29197;44.788;10.366;2023-09-30T09:35:53;9.27;;;6.43;;
43606;SDS011;29197;44.788;10.366;2023-09-30T09:38:46;10.60;;;8.10;;
43606;SDS011;29197;44.788;10.366;2023-09-30T09:41:48;15.48;;;12.57;;
43606;SDS011;29197;44.788;10.366;2023-09-30T09:44:38;14.43;;;10.90;;
43606;SDS011;29197;44.788;10.366;2023-09-30T09:47:28;11.38;;;8.23;;
43606;SDS011;29197;44.788;10.366;2023-09-30T09:50:17;14.85;;;10.60;;
43606;SDS011;29197;44.788;10.366;2023-09-30T09:53:08;15.50;;;10.18;;
43606;SDS011;29197;44.788;10.366;2023-09-30T09:55:57;26.00;;;14.35;;
43606;SDS011;29197;44.788;10.366;2023-09-30T09:58:48;18.45;;;10.95;;
43606;SDS011;29197;44.788;10.366;2023-09-30T10:01:37;17.40;;;10.82;;
43606;SDS011;29197;44.788;10.366;2023-09-30T10:04:27;15.90;;;11.57;;
43606;SDS011;29197;44.788;10.366;2023-09-30T10:07:16;13.30;;;9.27;;
43606;SDS011;29197;44.788;10.366;2023-09-30T10:10:11;13.60;;;8.30;;
43606;SDS011;29197;44.788;10.366;2023-09-30T10:13:01;14.50;;;9.35;;
43606;SDS011;29197;44.788;10.366;2023-09-30T10:15:50;10.85;;;7.72;;
43606;SDS011;29197;44.788;10.366;2023-09-30T10:24:54;16.88;;;9.05;;
43606;SDS011;29197;44.788;10.366;2023-09-30T10:27:45;12.10;;;6.90;;
43606;SDS011;29197;44.788;10.366;2023-09-30T10:30:34;10.45;;;8.10;;
43606;SDS011;29197;44.788;10.366;2023-09-30T10:33:23;11.63;;;7.05;;
43606;SDS011;29197;44.788;10.366;2023-09-30T10:36:12;11.80;;;7.13;;
43606;SDS011;29197;44.788;10.366;2023-09-30T10:39:01;8.80;;;6.13;;
43606;SDS011;29197;44.788;10.366;2023-09-30T10:41:50;11.80;;;6.35;;
43606;SDS011;29197;44.788;10.366;2023-09-30T10:44:40;9.38;;;6.80;;
43606;SDS011;29197;44.788;10.366;2023-09-30T10:47:35;12.68;;;8.45;;
43606;SDS011;29197;44.788;10.366;2023-09-30T10:53:33;12.27;;;6.53;;
43606;SDS011;29197;44.788;10.366;2023-09-30T10:56:22;11.15;;;7.40;;
43606;SDS011;29197;44.788;10.366;2023-09-30T10:59:17;12.30;;;8.02;;
43606;SDS011;29197;44.788;10.366;2023-09-30T11:02:18;10.98;;;6.22;;
43606;SDS011;29197;44.788;10.366;2023-09-30T11:05:08;17.27;;;11.27;;
43606;SDS011;29197;44.788;10.366;2023-09-30T11:07:57;12.93;;;8.82;;
43606;SDS011;29197;44.788;10.366;2023-09-30T11:10:47;14.77;;;7.85;;
43606;SDS011;29197;44.788;10.366;2023-09-30T11:13:37;10.07;;;7.00;;
43606;SDS011;29197;44.788;10.366;2023-09-30T11:16:26;15.60;;;8.73;;
43606;SDS011;29197;44.788;10.366;2023-09-30T11:19:17;9.23;;;7.28;;
43606;SDS011;29197;44.788;10.366;2023-09-30T11:22:07;9.00;;;6.30;;
43606;SDS011;29197;44.788;10.366;2023-09-30T11:24:56;19.67;;;10.23;;
43606;SDS011;29197;44.788;10.366;2023-09-30T11:27:45;14.48;;;7.80;;
43606;SDS011;29197;44.788;10.366;2023-09-30T11:30:34;8.93;;;6.88;;
43606;SDS011;29197;44.788;10.366;2023-09-30T11:33:23;6.75;;;5.07;;
43606;SDS011;29197;44.788;10.366;2023-09-30T11:36:14;8.10;;;5.22;;
43606;SDS011;29197;44.788;10.366;2023-09-30T11:39:03;5.50;;;4.47;;
43606;SDS011;29197;44.788;10.366;2023-09-30T11:41:53;10.90;;;5.75;;
43606;SDS011;29197;44.788;10.366;2023-09-30T11:44:44;8.77;;;4.78;;
43606;SDS011;29197;44.788;10.366;2023-09-30T11:47:34;15.57;;;6.35;;
43606;SDS011;29197;44.788;10.366;2023-09-30T11:50:24;12.15;;;7.50;;
43606;SDS011;29197;44.788;10.366;2023-09-30T11:53:16;7.03;;;5.25;;
43606;SDS011;29197;44.788;10.366;2023-09-30T11:56:07;7.90;;;5.75;;
43606;SDS011;29197;44.788;10.366;2023-09-30T11:58:57;11.73;;;7.55;;
43606;SDS011;29197;44.788;10.366;2023-09-30T12:01:46;9.50;;;5.45;;
43606;SDS011;29197;44.788;10.366;2023-09-30T12:04:55;8.10;;;5.30;;
43606;SDS011;29197;44.788;10.366;2023-09-30T12:07:44;9.80;;;4.88;;
43606;SDS011;29197;44.788;10.366;2023-09-30T12:10:35;6.43;;;4.95;;
43606;SDS011;29197;44.788;10.366;2023-09-30T12:13:24;6.05;;;4.47;;
43606;SDS011;29197;44.788;10.366;2023-09-30T12:16:13;7.47;;;4.80;;
43606;SDS011;29197;44.788;10.366;2023-09-30T12:19:02;8.32;;;4.68;;
43606;SDS011;29197;44.788;10.366;2023-09-30T12:21:52;5.78;;;4.00;;
43606;SDS011;29197;44.788;10.366;2023-09-30T12:24:41;7.28;;;5.55;;
43606;SDS011;29197;44.788;10.366;2023-09-30T12:27:32;5.20;;;3.80;;
43606;SDS011;29197;44.788;10.366;2023-09-30T12:30:21;8.70;;;4.78;;
43606;SDS011;29197;44.788;10.366;2023-09-30T12:33:10;10.55;;;4.55;;
43606;SDS011;29197;44.788;10.366;2023-09-30T12:35:59;8.88;;;4.32;;
43606;SDS011;29197;44.788;10.366;2023-09-30T12:38:48;11.45;;;6.00;;
43606;SDS011;29197;44.788;10.366;2023-09-30T12:41:37;7.35;;;4.82;;
43606;SDS011;29197;44.788;10.366;2023-09-30T12:44:27;10.48;;;5.35;;
43606;SDS011;29197;44.788;10.366;2023-09-30T12:47:16;4.50;;;3.55;;
43606;SDS011;29197;44.788;10.366;2023-09-30T12:50:05;6.47;;;4.20;;
43606;SDS011;29197;44.788;10.366;2023-09-30T12:52:58;5.80;;;4.03;;
43606;SDS011;29197;44.788;10.366;2023-09-30T12:55:47;6.63;;;4.60;;
43606;SDS011;29197;44.788;10.366;2023-09-30T12:58:36;4.15;;;3.53;;
43606;SDS011;29197;44.788;10.366;2023-09-30T13:01:27;13.02;;;4.93;;
43606;SDS011;29197;44.788;10.366;2023-09-30T13:04:18;6.68;;;5.03;;
43606;SDS011;29197;44.788;10.366;2023-09-30T13:07:07;6.60;;;4.63;;
43606;SDS011;29197;44.788;10.366;2023-09-30T13:09:56;6.13;;;4.47;;
43606;SDS011;29197;44.788;10.366;2023-09-30T13:12:47;5.40;;;4.03;;
43606;SDS011;29197;44.788;10.366;2023-09-30T13:15:36;7.45;;;4.35;;
43606;SDS011;29197;44.788;10.366;2023-09-30T13:18:27;6.65;;;4.15;;
43606;SDS011;29197;44.788;10.366;2023-09-30T13:21:15;4.88;;;3.92;;
43606;SDS011;29197;44.788;10.366;2023-09-30T13:24:04;8.10;;;4.45;;
43606;SDS011;29197;44.788;10.366;2023-09-30T13:26:56;6.55;;;3.53;;
43606;SDS011;29197;44.788;10.366;2023-09-30T13:29:45;5.65;;;3.42;;
43606;SDS011;29197;44.788;10.366;2023-09-30T13:32:34;5.25;;;3.20;;
43606;SDS011;29197;44.788;10.366;2023-09-30T13:35:24;5.47;;;3.85;;
43606;SDS011;29197;44.788;10.366;2023-09-30T13:38:13;7.43;;;4.40;;
43606;SDS011;29197;44.788;10.366;2023-09-30T13:41:03;6.45;;;3.65;;
43606;SDS011;29197;44.788;10.366;2023-09-30T13:43:52;6.97;;;4.03;;
43606;SDS011;29197;44.788;10.366;2023-09-30T13:46:41;14.52;;;5.03;;
43606;SDS011;29197;44.788;10.366;2023-09-30T13:49:30;7.40;;;3.95;;
43606;SDS011;29197;44.788;10.366;2023-09-30T13:52:21;6.53;;;4.35;;
43606;SDS011;29197;44.788;10.366;2023-09-30T13:55:10;5.63;;;4.32;;
43606;SDS011;29197;44.788;10.366;2023-09-30T13:58:05;10.38;;;4.03;;
43606;SDS011;29197;44.788;10.366;2023-09-30T14:00:54;6.25;;;4.05;;
43606;SDS011;29197;44.788;10.366;2023-09-30T14:03:43;4.20;;;3.60;;
43606;SDS011;29197;44.788;10.366;2023-09-30T14:06:33;5.80;;;4.13;;
43606;SDS011;29197;44.788;10.366;2023-09-30T14:09:25;4.95;;;3.47;;
43606;SDS011;29197;44.788;10.366;2023-09-30T14:12:22;4.60;;;3.80;;
43606;SDS011;29197;44.788;10.366;2023-09-30T14:15:10;11.15;;;4.25;;
43606;SDS011;29197;44.788;10.366;2023-09-30T14:17:59;4.80;;;3.92;;
43606;SDS011;29197;44.788;10.366;2023-09-30T14:20:49;11.10;;;5.10;;
43606;SDS011;29197;44.788;10.366;2023-09-30T14:23:38;6.82;;;3.92;;
43606;SDS011;29197;44.788;10.366;2023-09-30T14:26:28;9.07;;;3.67;;
43606;SDS011;29197;44.788;10.366;2023-09-30T14:29:17;5.85;;;3.90;;
43606;SDS011;29197;44.788;10.366;2023-09-30T14:32:06;6.25;;;4.05;;
43606;SDS011;29197;44.788;10.366;2023-09-30T14:34:54;12.75;;;4.68;;
43606;SDS011;29197;44.788;10.366;2023-09-30T14:37:44;9.88;;;4.28;;
43606;SDS011;29197;44.788;10.366;2023-09-30T14:40:35;5.93;;;4.60;;
43606;SDS011;29197;44.788;10.366;2023-09-30T14:43:27;5.43;;;4.32;;
43606;SDS011;29197;44.788;10.366;2023-09-30T14:46:16;5.65;;;3.42;;
43606;SDS011;29197;44.788;10.366;2023-09-30T14:49:05;7.70;;;3.72;;
43606;SDS011;29197;44.788;10.366;2023-09-30T14:51:56;5.18;;;3.45;;
43606;SDS011;29197;44.788;10.366;2023-09-30T14:54:44;6.57;;;4.10;;
43606;SDS011;29197;44.788;10.366;2023-09-30T14:57:33;5.20;;;4.10;;
43606;SDS011;29197;44.788;10.366;2023-09-30T15:00:24;7.13;;;3.92;;
43606;SDS011;29197;44.788;10.366;2023-09-30T15:03:13;5.47;;;3.70;;
43606;SDS011;29197;44.788;10.366;2023-09-30T15:06:02;4.32;;;3.60;;
43606;SDS011;29197;44.788;10.366;2023-09-30T15:08:51;4.38;;;3.63;;
43606;SDS011;29197;44.788;10.366;2023-09-30T15:11:40;7.57;;;4.00;;
43606;SDS011;29197;44.788;10.366;2023-09-30T15:14:29;7.05;;;4.15;;
43606;SDS011;29197;44.788;10.366;2023-09-30T15:17:19;7.22;;;4.05;;
43606;SDS011;29197;44.788;10.366;2023-09-30T15:20:09;7.60;;;3.92;;
43606;SDS011;29197;44.788;10.366;2023-09-30T15:22:58;8.10;;;3.90;;
43606;SDS011;29197;44.788;10.366;2023-09-30T15:25:46;5.82;;;3.53;;
43606;SDS011;29197;44.788;10.366;2023-09-30T15:28:36;5.93;;;3.47;;
43606;SDS011;29197;44.788;10.366;2023-09-30T15:31:26;4.70;;;3.85;;
43606;SDS011;29197;44.788;10.366;2023-09-30T15:34:18;7.65;;;3.70;;
43606;SDS011;29197;44.788;10.366;2023-09-30T15:37:06;4.30;;;3.90;;
43606;SDS011;29197;44.788;10.366;2023-09-30T15:39:55;5.18;;;4.03;;
43606;SDS011;29197;44.788;10.366;2023-09-30T15:42:45;5.45;;;4.00;;
43606;SDS011;29197;44.788;10.366;2023-09-30T15:45:34;7.22;;;4.60;;
43606;SDS011;29197;44.788;10.366;2023-09-30T15:48:24;6.72;;;4.38;;
43606;SDS011;29197;44.788;10.366;2023-09-30T15:51:14;5.65;;;4.18;;
43606;SDS011;29197;44.788;10.366;2023-09-30T15:54:03;5.47;;;3.92;;
43606;SDS011;29197;44.788;10.366;2023-09-30T15:56:52;5.32;;;3.38;;
43606;SDS011;29197;44.788;10.366;2023-09-30T15:59:42;7.32;;;4.28;;
43606;SDS011;29197;44.788;10.366;2023-09-30T16:02:31;4.85;;;3.70;;
43606;SDS011;29197;44.788;10.366;2023-09-30T16:05:20;6.10;;;3.90;;
43606;SDS011;29197;44.788;10.366;2023-09-30T16:08:10;4.50;;;3.30;;
43606;SDS011;29197;44.788;10.366;2023-09-30T16:10:59;5.22;;;3.72;;
43606;SDS011;29197;44.788;10.366;2023-09-30T16:13:48;6.97;;;4.10;;
43606;SDS011;29197;44.788;10.366;2023-09-30T16:16:38;4.80;;;4.15;;
43606;SDS011;29197;44.788;10.366;2023-09-30T16:19:27;6.47;;;3.97;;
43606;SDS011;29197;44.788;10.366;2023-09-30T16:22:18;8.40;;;3.88;;
43606;SDS011;29197;44.788;10.366;2023-09-30T16:25:09;5.72;;;4.03;;
43606;SDS011;29197;44.788;10.366;2023-09-30T16:27:57;5.18;;;4.00;;
43606;SDS011;29197;44.788;10.366;2023-09-30T16:30:47;5.85;;;3.95;;
43606;SDS011;29197;44.788;10.366;2023-09-30T16:33:36;8.82;;;4.80;;
43606;SDS011;29197;44.788;10.366;2023-09-30T16:36:25;8.55;;;5.70;;
43606;SDS011;29197;44.788;10.366;2023-09-30T16:39:14;6.88;;;5.72;;
43606;SDS011;29197;44.788;10.366;2023-09-30T16:42:05;10.70;;;6.95;;
43606;SDS011;29197;44.788;10.366;2023-09-30T16:44:54;8.63;;;5.72;;
43606;SDS011;29197;44.788;10.366;2023-09-30T16:47:43;8.40;;;5.45;;
43606;SDS011;29197;44.788;10.366;2023-09-30T16:50:31;8.05;;;4.63;;
43606;SDS011;29197;44.788;10.366;2023-09-30T16:53:20;5.30;;;4.05;;
43606;SDS011;29197;44.788;10.366;2023-09-30T16:56:09;6.70;;;4.78;;